MiSS Christi — WBM6513 — position and weather

sailwx.info

Track history (hours):
 
Tides and Currents Weather Stations Pressure Air Temp Water Temp Dewpoint Dewpoint Depression Visibility Wind Speed Wind Dir Waves Ship Positions

MiSS Christi

Owner: MISS CHRISTI INC, WEST HILLS, CA. More information available from US FCC via Universal Licensing System and Coast Guard Vessel Documentation Center.

Last reported at 2017-Aug-16 23:58 UTC. Time now 2017-Aug-17 03:29 UTC.
Position N 33°44' W 118°16'.

Length 15 m; draft 1.5 m.

Type: Passenger vessel. MMSI: 367311590.

Date/timePositionNaut miles runAvg speedWind from/ knotsBaromVisibWave heightAir tempDewpointWater temp
2017-Aug-16 23:58N 33°44' W 118°16'611.0
2017-Aug-16 23:26N 33°39' W 118°19'917.3
2017-Aug-16 22:56N 33°32' W 118°26'10 1.3
2017-Aug-16 14:53N 33°40' W 118°18'411.7
2017-Aug-16 14:30N 33°44' W 118°16'0 0.0
2017-Aug-16 14:00N 33°44' W 118°16'0 0.0
2017-Aug-16 13:30N 33°44' W 118°16'0 0.0
2017-Aug-16 00:04N 33°44' W 118°16'0 0.0
2017-Aug-16 00:00N 33°44' W 118°16'511.0
2017-Aug-15 23:30N 33°39' W 118°19'1016.2
2017-Aug-15 22:54N 33°31' W 118°26'11 1.4
2017-Aug-15 15:10N 33°40' W 118°18'317.0
2017-Aug-15 15:00N 33°42' W 118°16'2 4.7
2017-Aug-15 14:30N 33°44' W 118°16'0 0.0
2017-Aug-15 14:00N 33°44' W 118°16'0 0.0
2017-Aug-14 23:52N 33°44' W 118°16'410.3
2017-Aug-14 23:30N 33°41' W 118°17'1019.1
2017-Aug-14 23:00N 33°33' W 118°24'711.7
2017-Aug-14 22:22N 33°27' W 118°29'0 0.0
2017-Aug-14 21:44N 33°27' W 118°29'0 0.1
2017-Aug-14 15:51N 33°27' W 118°29'1117.7
2017-Aug-14 15:13N 33°36' W 118°21'417.7
2017-Aug-14 14:59N 33°39' W 118°18'510.7
2017-Aug-14 14:30N 33°44' W 118°16'0 0.1
2017-Aug-14 14:00N 33°44' W 118°16'0 0.1
2017-Aug-14 13:30N 33°44' W 118°16'  
2017-Aug-11 21:10N 33°44' W 118°16'1 4.1
2017-Aug-11 21:00N 33°44' W 118°16'713.4
2017-Aug-11 20:30N 33°37' W 118°19'714.9
2017-Aug-11 20:00N 33°32' W 118°25'6 1.8
2017-Aug-11 16:34N 33°27' W 118°29'1 9.5
2017-Aug-11 16:28N 33°28' W 118°29'816.5
2017-Aug-11 16:00N 33°34' W 118°23'816.2
2017-Aug-11 15:30N 33°40' W 118°17'4 8.3
2017-Aug-11 15:00N 33°44' W 118°16'0 0.1
2017-Aug-11 14:30N 33°44' W 118°16'0 0.0
2017-Aug-11 00:08N 33°44' W 118°16'0 0.0
2017-Aug-11 00:01N 33°44' W 118°16'5 9.8
2017-Aug-10 23:31N 33°39' W 118°18'916.5
2017-Aug-10 22:59N 33°33' W 118°24'714.7
2017-Aug-10 22:30N 33°27' W 118°29'0 0.0
2017-Aug-10 22:00N 33°27' W 118°29'0 0.0
2017-Aug-10 21:30N 33°27' W 118°29'0 0.0
2017-Aug-10 20:59N 33°27' W 118°29'0 0.1
2017-Aug-10 20:30N 33°27' W 118°29'0 0.0
2017-Aug-10 18:56N 33°27' W 118°29'0 0.0
2017-Aug-10 18:23N 33°27' W 118°29'0 0.2
2017-Aug-10 15:50N 33°27' W 118°29'1218.1
2017-Aug-10 15:11N 33°36' W 118°20'318.1
2017-Aug-10 15:00N 33°39' W 118°18'510.7
2017-Aug-10 14:31N 33°44' W 118°16'0 0.1
2017-Aug-10 14:01N 33°44' W 118°16'0 0.0
2017-Aug-09 23:53N 33°44' W 118°16'410.6
2017-Aug-09 23:30N 33°40' W 118°17'1218.1
2017-Aug-09 22:52N 33°31' W 118°26'514.4
2017-Aug-09 22:29N 33°27' W 118°29'0 0.0
2017-Aug-09 21:32N 33°27' W 118°29'0 0.0
2017-Aug-09 21:27N 33°27' W 118°29'0 0.0
2017-Aug-09 21:00N 33°27' W 118°29'0 0.0
2017-Aug-09 20:30N 33°27' W 118°29'0 0.1
2017-Aug-09 15:51N 33°27' W 118°29'618.1
2017-Aug-09 15:30N 33°31' W 118°23'817.1
2017-Aug-09 15:00N 33°39' W 118°19'612.0
2017-Aug-09 14:30N 33°44' W 118°16'0 0.0
2017-Aug-09 14:00N 33°44' W 118°16'0 0.0
2017-Aug-09 00:11N 33°44' W 118°16'1 6.8
2017-Aug-09 00:00N 33°43' W 118°16'816.0
2017-Aug-08 23:30N 33°36' W 118°19'917.3
2017-Aug-08 23:00N 33°30' W 118°27'4 4.1
2017-Aug-08 22:07N 33°27' W 118°29'0 0.0
2017-Aug-08 21:58N 33°27' W 118°29'0 1.0
2017-Aug-08 21:30N 33°27' W 118°29'918.2
2017-Aug-08 21:00N 33°34' W 118°22'918.2
2017-Aug-08 20:30N 33°42' W 118°16'2 4.8
2017-Aug-08 20:00N 33°44' W 118°16'0 0.0
2017-Aug-08 19:30N 33°44' W 118°16'0 0.1
2017-Aug-08 19:00N 33°44' W 118°16'2 3.7
2017-Aug-08 18:30N 33°43' W 118°15'1018.9
2017-Aug-08 18:00N 33°35' W 118°23'918.7
2017-Aug-08 17:30N 33°27' W 118°29'1 1.7
2017-Aug-08 17:00N 33°27' W 118°29'0 0.0
2017-Aug-08 16:02N 33°27' W 118°29'0 2.5
2017-Aug-08 15:51N 33°27' W 118°29'1018.4
2017-Aug-08 15:19N 33°35' W 118°22'618.2
2017-Aug-08 15:00N 33°39' W 118°17'5 0.3
2017-Aug-07 23:51N 33°44' W 118°16'3 9.5
2017-Aug-07 23:30N 33°41' W 118°16'918.3
2017-Aug-07 23:00N 33°34' W 118°23'917.4
2017-Aug-07 22:31N 33°27' W 118°29'0 0.1
2017-Aug-07 22:00N 33°27' W 118°29'0 0.0
2017-Aug-07 21:30N 33°27' W 118°29'0 0.0
2017-Aug-07 21:00N 33°27' W 118°29'0 0.0
2017-Aug-07 20:30N 33°27' W 118°29'0 0.0
2017-Aug-07 20:00N 33°27' W 118°29'0 0.0
2017-Aug-07 19:28N 33°27' W 118°29'0 0.0
2017-Aug-07 18:29N 33°27' W 118°29'0 0.0
2017-Aug-07 17:41N 33°27' W 118°29'0 0.0
2017-Aug-07 17:30N 33°27' W 118°29'0 0.0
2017-Aug-07 16:56N 33°27' W 118°29'14 8.1
2017-Aug-07 15:10N 33°38' W 118°19'317.8
2017-Aug-07 15:00N 33°41' W 118°17'4 7.4
2017-Aug-07 14:30N 33°44' W 118°16'  
Track history (hours):
 
Tides and Currents Weather Stations Pressure Air Temp Water Temp Dewpoint Dewpoint Depression Visibility Wind Speed Wind Dir Waves Ship Positions

MiSS Christi

Owner: MISS CHRISTI INC, WEST HILLS, CA. More information available from US FCC via Universal Licensing System and Coast Guard Vessel Documentation Center.

Last reported at 2017-Aug-16 23:58 UTC. Time now 2017-Aug-17 03:29 UTC.
Position N 33°44' W 118°16'.

Length 15 m; draft 1.5 m.

Type: Passenger vessel. MMSI: 367311590.

Date/timePositionNaut miles runAvg speedWind from/ knotsBaromVisibWave heightAir tempDewpointWater temp
2017-Aug-16 23:58N 33°44' W 118°16'611.0
2017-Aug-16 23:26N 33°39' W 118°19'917.3
2017-Aug-16 22:56N 33°32' W 118°26'10 1.3
2017-Aug-16 14:53N 33°40' W 118°18'411.7
2017-Aug-16 14:30N 33°44' W 118°16'0 0.0
2017-Aug-16 14:00N 33°44' W 118°16'0 0.0
2017-Aug-16 13:30N 33°44' W 118°16'0 0.0
2017-Aug-16 00:04N 33°44' W 118°16'0 0.0
2017-Aug-16 00:00N 33°44' W 118°16'511.0
2017-Aug-15 23:30N 33°39' W 118°19'1016.2
2017-Aug-15 22:54N 33°31' W 118°26'11 1.4
2017-Aug-15 15:10N 33°40' W 118°18'317.0
2017-Aug-15 15:00N 33°42' W 118°16'2 4.7
2017-Aug-15 14:30N 33°44' W 118°16'0 0.0
2017-Aug-15 14:00N 33°44' W 118°16'0 0.0
2017-Aug-14 23:52N 33°44' W 118°16'410.3
2017-Aug-14 23:30N 33°41' W 118°17'1019.1
2017-Aug-14 23:00N 33°33' W 118°24'711.7
2017-Aug-14 22:22N 33°27' W 118°29'0 0.0
2017-Aug-14 21:44N 33°27' W 118°29'0 0.1
2017-Aug-14 15:51N 33°27' W 118°29'1117.7
2017-Aug-14 15:13N 33°36' W 118°21'417.7
2017-Aug-14 14:59N 33°39' W 118°18'510.7
2017-Aug-14 14:30N 33°44' W 118°16'0 0.1
2017-Aug-14 14:00N 33°44' W 118°16'0 0.1
2017-Aug-14 13:30N 33°44' W 118°16'  
2017-Aug-11 21:10N 33°44' W 118°16'1 4.1
2017-Aug-11 21:00N 33°44' W 118°16'713.4
2017-Aug-11 20:30N 33°37' W 118°19'714.9
2017-Aug-11 20:00N 33°32' W 118°25'6 1.8
2017-Aug-11 16:34N 33°27' W 118°29'1 9.5
2017-Aug-11 16:28N 33°28' W 118°29'816.5
2017-Aug-11 16:00N 33°34' W 118°23'816.2
2017-Aug-11 15:30N 33°40' W 118°17'4 8.3
2017-Aug-11 15:00N 33°44' W 118°16'0 0.1
2017-Aug-11 14:30N 33°44' W 118°16'0 0.0
2017-Aug-11 00:08N 33°44' W 118°16'0 0.0
2017-Aug-11 00:01N 33°44' W 118°16'5 9.8
2017-Aug-10 23:31N 33°39' W 118°18'916.5
2017-Aug-10 22:59N 33°33' W 118°24'714.7
2017-Aug-10 22:30N 33°27' W 118°29'0 0.0
2017-Aug-10 22:00N 33°27' W 118°29'0 0.0
2017-Aug-10 21:30N 33°27' W 118°29'0 0.0
2017-Aug-10 20:59N 33°27' W 118°29'0 0.1
2017-Aug-10 20:30N 33°27' W 118°29'0 0.0
2017-Aug-10 18:56N 33°27' W 118°29'0 0.0
2017-Aug-10 18:23N 33°27' W 118°29'0 0.2
2017-Aug-10 15:50N 33°27' W 118°29'1218.1
2017-Aug-10 15:11N 33°36' W 118°20'318.1
2017-Aug-10 15:00N 33°39' W 118°18'510.7
2017-Aug-10 14:31N 33°44' W 118°16'0 0.1
2017-Aug-10 14:01N 33°44' W 118°16'0 0.0
2017-Aug-09 23:53N 33°44' W 118°16'410.6
2017-Aug-09 23:30N 33°40' W 118°17'1218.1
2017-Aug-09 22:52N 33°31' W 118°26'514.4
2017-Aug-09 22:29N 33°27' W 118°29'0 0.0
2017-Aug-09 21:32N 33°27' W 118°29'0 0.0
2017-Aug-09 21:27N 33°27' W 118°29'0 0.0
2017-Aug-09 21:00N 33°27' W 118°29'0 0.0
2017-Aug-09 20:30N 33°27' W 118°29'0 0.1
2017-Aug-09 15:51N 33°27' W 118°29'618.1
2017-Aug-09 15:30N 33°31' W 118°23'817.1
2017-Aug-09 15:00N 33°39' W 118°19'612.0
2017-Aug-09 14:30N 33°44' W 118°16'0 0.0
2017-Aug-09 14:00N 33°44' W 118°16'0 0.0
2017-Aug-09 00:11N 33°44' W 118°16'1 6.8
2017-Aug-09 00:00N 33°43' W 118°16'816.0
2017-Aug-08 23:30N 33°36' W 118°19'917.3
2017-Aug-08 23:00N 33°30' W 118°27'4 4.1
2017-Aug-08 22:07N 33°27' W 118°29'0 0.0
2017-Aug-08 21:58N 33°27' W 118°29'0 1.0
2017-Aug-08 21:30N 33°27' W 118°29'918.2
2017-Aug-08 21:00N 33°34' W 118°22'918.2
2017-Aug-08 20:30N 33°42' W 118°16'2 4.8
2017-Aug-08 20:00N 33°44' W 118°16'0 0.0
2017-Aug-08 19:30N 33°44' W 118°16'0 0.1
2017-Aug-08 19:00N 33°44' W 118°16'2 3.7
2017-Aug-08 18:30N 33°43' W 118°15'1018.9
2017-Aug-08 18:00N 33°35' W 118°23'918.7
2017-Aug-08 17:30N 33°27' W 118°29'1 1.7
2017-Aug-08 17:00N 33°27' W 118°29'0 0.0
2017-Aug-08 16:02N 33°27' W 118°29'0 2.5
2017-Aug-08 15:51N 33°27' W 118°29'1018.4
2017-Aug-08 15:19N 33°35' W 118°22'618.2
2017-Aug-08 15:00N 33°39' W 118°17'5 0.3
2017-Aug-07 23:51N 33°44' W 118°16'3 9.5
2017-Aug-07 23:30N 33°41' W 118°16'918.3
2017-Aug-07 23:00N 33°34' W 118°23'917.4
2017-Aug-07 22:31N 33°27' W 118°29'0 0.1
2017-Aug-07 22:00N 33°27' W 118°29'0 0.0
2017-Aug-07 21:30N 33°27' W 118°29'0 0.0
2017-Aug-07 21:00N 33°27' W 118°29'0 0.0
2017-Aug-07 20:30N 33°27' W 118°29'0 0.0
2017-Aug-07 20:00N 33°27' W 118°29'0 0.0
2017-Aug-07 19:28N 33°27' W 118°29'0 0.0
2017-Aug-07 18:29N 33°27' W 118°29'0 0.0
2017-Aug-07 17:41N 33°27' W 118°29'0 0.0
2017-Aug-07 17:30N 33°27' W 118°29'0 0.0
2017-Aug-07 16:56N 33°27' W 118°29'14 8.1
2017-Aug-07 15:10N 33°38' W 118°19'317.8
2017-Aug-07 15:00N 33°41' W 118°17'4 7.4
2017-Aug-07 14:30N 33°44' W 118°16'  

Dump ship's entire track history